Time;durP1;ratioP1;P1;durP2;ratioP2;P2;SDS_P1;SDS_P2;PMS_P1;PMS_P2;Temp;Humidity;BMP_temperature;BMP_pressure;BME280_temperature;BME280_humidity;BME280_pressure;Samples;Min_cycle;Max_cycle;Signal;HPM_P1;HPM_P2
2022/07/10 00:29:47;;;;;;;;;;;;;;;17.02;49.22363;102863.3;;;;-80
2022/07/10 01:10:53;;;;;;;;;;;;;;;16.09;50.66797;102843;;;;-80
2022/07/10 02:00:42;;;;;;;2.7;0.8;;;;;;;;;;;;;-81
2022/07/10 02:02:27;;;;;;;;;;;;;;;15.62;51.33594;102797.5;;;;-81
2022/07/10 02:07:06;;;;;;;;;;;;;;;15.92;50.86426;102794.2;;;;-81
2022/07/10 02:10:01;;;;;;;;;;;;;;;15.59;51.42285;102789.9;;;;-81
2022/07/10 02:15:01;;;;;;;;;;;;;;;15.57;51.55664;102793.7;;;;-82
2022/07/10 02:19:58;;;;;;;;;;;;;;;15.58;51.61426;102789.5;;;;-82
2022/07/10 02:25:00;;;;;;;;;;;;;;;15.58;51.66016;102783.9;;;;-82
2022/07/10 02:30:08;;;;;;;;;;;;;;;15.59;51.55859;102787.9;;;;-84
2022/07/10 02:30:29;;;;;;;5;1;;;;;;;;;;;;;-81
2022/07/10 02:35:00;;;;;;;;;;;;;;;15.61;51.64063;102794.7;;;;-83
2022/07/10 02:40:02;;;;;;;;;;;;;;;15.62;51.5957;102793.3;;;;-82
2022/07/10 02:44:58;;;;;;;;;;;;;;;15.64;51.66699;102784;;;;-77
2022/07/10 02:49:58;;;;;;;;;;;;;;;15.68;51.59277;102781.9;;;;-78
2022/07/10 02:55:00;;;;;;;;;;;;;;;15.7;51.76367;102785.4;;;;-78
2022/07/10 03:00:06;;;;;;;;;;;;;;;15.7;51.76367;102782.7;;;;-78
2022/07/10 03:12:32;;;;;;;;;;;;;;;16.1;51.33691;102783.2;;;;-78
2022/07/10 03:14:24;;;;;;;;;;;;;;;15.99;51.49219;102779.7;;;;-78
2022/07/10 03:19:11;;;;;;;;;;;;;;;15.77;51.72852;102777.7;;;;-79
2022/07/10 03:23:54;;;;;;;;;;;;;;;15.77;51.85156;102759.9;;;;-77
2022/07/10 03:29:02;;;;;;;;;;;;;;;15.78;51.89746;102758.9;;;;-78
2022/07/10 03:30:48;;;;;;;4.3;0.8;;;;;;;;;;;;;-77
2022/07/10 03:34:00;;;;;;;;;;;;;;;15.81;51.84473;102764.4;;;;-80
2022/07/10 03:39:01;;;;;;;;;;;;;;;15.82;51.84473;102770;;;;-78
2022/07/10 03:42:49;;;;;;;;;;;;;;;16.14;51.5332;102758.6;;;;-78
2022/07/10 03:45:48;;;;;;;;;;;;;;;15.86;51.8623;102769.3;;;;-78
2022/07/10 03:50:40;;;;;;;;;;;;;;;15.86;51.82813;102767;;;;-79
2022/07/10 03:55:40;;;;;;;;;;;;;;;15.88;51.87598;102756.8;;;;-83
2022/07/10 04:01:56;;;;;;;;;;;;;;;16.27;51.51465;102755.9;;;;-79
2022/07/10 04:16:32;;;;;;;;;;;;;;;16.23;51.62305;102756;;;;-75
2022/07/10 04:19:10;;;;;;;;;;;;;;;16.01;52.06055;102752.4;;;;-77
2022/07/10 04:24:01;;;;;;;;;;;;;;;16.03;52.27832;102756;;;;-78
2022/07/10 04:29:02;;;;;;;;;;;;;;;16.08;52.30566;102758.3;;;;-83
2022/07/10 04:34:02;;;;;;;;;;;;;;;16.12;52.48047;102755.9;;;;-82
2022/07/10 04:39:03;;;;;;;;;;;;;;;16.17;52.38379;102752.8;;;;-79
2022/07/10 04:44:14;;;;;;;;;;;;;;;16.19;52.41992;102761.5;;;;-82
2022/07/10 04:49:17;;;;;;;;;;;;;;;16.22;52.38965;102765.3;;;;-83
2022/07/10 04:54:07;;;;;;;;;;;;;;;16.24;52.4834;102762.2;;;;-83
2022/07/10 04:59:05;;;;;;;;;;;;;;;16.27;52.45215;102757.6;;;;-81
2022/07/10 05:00:34;;;;;;;2.5;0.8;;;;;;;;;;;;;-83
2022/07/10 05:04:12;;;;;;;;;;;;;;;16.29;52.64648;102759.8;;;;-83
2022/07/10 05:09:15;;;;;;;;;;;;;;;16.33;52.85547;102763.5;;;;-82
2022/07/10 05:14:05;;;;;;;;;;;;;;;16.37;53.17578;102763;;;;-83
2022/07/10 05:19:02;;;;;;;;;;;;;;;16.38;53.5293;102755.5;;;;-82
2022/07/10 05:33:01;;;;;;;;;;;;;;;;;;;;;
2022/07/10 05:36:25;;;;;;;;;;;;;;;16.93;53.21094;102760.2;;;;-82
2022/07/10 05:40:48;;;;;;;;;;;;;;;16.6;54.22168;102756.8;;;;-82
2022/07/10 05:45:28;;;;;;;;;;;;;;;16.61;54.25781;102763.6;;;;-83
2022/07/10 05:50:55;;;;;;;;;;;;;;;16.66;54.44434;102755.5;;;;-84
2022/07/10 06:00:26;;;;;;;;;;;;;;;16.77;54.68262;102754.4;;;;-83
2022/07/10 06:00:53;;;;;;;3.8;1;;;;;;;;;;;;;-83
2022/07/10 06:05:58;;;;;;;;;;;;;;;16.81;54.99414;102759.8;;;;-82
2022/07/10 06:10:25;;;;;;;;;;;;;;;16.86;55.05762;102764.7;;;;-82
2022/07/10 06:15:25;;;;;;;;;;;;;;;16.91;55.19824;102763.5;;;;-81
2022/07/10 06:20:30;;;;;;;;;;;;;;;16.95;55.71387;102759.8;;;;-82
2022/07/10 06:25:28;;;;;;;;;;;;;;;17.01;55.84473;102761.9;;;;-83
2022/07/10 06:30:39;;;;;;;;;;;;;;;17.09;55.94531;102767.3;;;;-81
2022/07/10 06:31:14;;;;;;;2.7;1;;;;;;;;;;;;;-81
2022/07/10 06:36:00;;;;;;;;;;;;;;;17.19;55.87891;102764.6;;;;-81
2022/07/10 06:38:49;;;;;;;;;;;;;;;17.46;55.52832;102759.8;;;;-81
2022/07/10 06:41:31;;;;;;;;;;;;;;;17.32;55.80469;102767.7;;;;-83
2022/07/10 06:46:20;;;;;;;;;;;;;;;17.41;55.79297;102770.4;;;;-82
2022/07/10 06:51:15;;;;;;;;;;;;;;;17.49;55.85938;102769.5;;;;-82
2022/07/10 06:56:06;;;;;;;;;;;;;;;17.54;55.97949;102769.4;;;;-83
2022/07/10 07:01:17;;;;;;;2.6;0.9;;;;;;;;;;;;;-83
2022/07/10 07:26:18;;;;;;;;;;;;;;;18.28;55.0752;102771.3;;;;-82
2022/07/10 07:31:04;;;;;;;;;;;;;;;;;;;;;
2022/07/10 07:32:06;;;;;;;;;;;;;;;;;;;;;
2022/07/10 07:54:35;;;;;;;;;;;;;;;19.44;53.26172;102766.6;;;;-78
2022/07/10 07:59:43;;;;;;;;;;;;;;;;;;;;;
2022/07/10 08:07:02;;;;;;;;;;;;;;;20.53;51.16602;102765.2;;;;-79
2022/07/10 08:18:12;;;;;;;;;;;;;;;20.87;50.54297;102755.1;;;;-78
2022/07/10 08:20:02;;;;;;;;;;;;;;;21.07;50.05176;102752.6;;;;-78
2022/07/10 08:24:35;;;;;;;;;;;;;;;21;50.23633;102745.7;;;;-79
2022/07/10 08:29:52;;;;;;;;;;;;;;;21.28;49.69629;102742.1;;;;-83
2022/07/10 08:31:17;;;;;;;2.8;1;;;;;;;;;;;;;-82
2022/07/10 09:05:36;;;;;;;;;;;;;;;22.31;47.67773;102747.8;;;;-80
2022/07/10 09:19:36;;;;;;;;;;;;;;;22.57;47.18848;102735.6;;;;-79
2022/07/10 09:24:09;;;;;;;;;;;;;;;23.08;46.54199;102733.2;;;;-78
2022/07/10 09:38:16;;;;;;;;;;;;;;;23.4;45.30762;102729.2;;;;-78
2022/07/10 10:29:54;;;;;;;;;;;;;;;26.5;39.96094;102722.1;;;;-76
2022/07/10 10:31:02;;;;;;;2;0.9;;;;;;;;;;;;;-77
2022/07/10 10:34:48;;;;;;;;;;;;;;;26.43;39.81445;102718.9;;;;-77
2022/07/10 10:39:32;;;;;;;;;;;;;;;26.55;39.39648;102710.4;;;;-78
2022/07/10 10:44:37;;;;;;;;;;;;;;;26.73;39.43457;102712.6;;;;-78
2022/07/10 10:49:41;;;;;;;;;;;;;;;26.91;39.14844;102708.8;;;;-73
2022/07/10 10:54:32;;;;;;;;;;;;;;;27.07;38.95313;102708.7;;;;-73
2022/07/10 10:59:43;;;;;;;;;;;;;;;27.28;39.01758;102704.7;;;;-73
2022/07/10 11:01:20;;;;;;;2.3;0.8;;;;;;;;;;;;;-72
2022/07/10 11:04:33;;;;;;;;;;;;;;;27.49;38.50098;102700.4;;;;-71
2022/07/10 11:09:33;;;;;;;;;;;;;;;27.66;38.5498;102692.7;;;;-72
2022/07/10 11:14:32;;;;;;;;;;;;;;;27.8;38.06055;102689.3;;;;-73
2022/07/10 11:19:32;;;;;;;;;;;;;;;27.93;38.16504;102682.7;;;;-71
2022/07/10 11:24:44;;;;;;;;;;;;;;;28.1;37.87598;102679.7;;;;-72
2022/07/10 11:29:32;;;;;;;;;;;;;;;28.24;37.49121;102678.6;;;;-71
2022/07/10 11:31:09;;;;;;;3;0.9;;;;;;;;;;;;;-70
2022/07/10 11:34:37;;;;;;;;;;;;;;;28.42;37.91504;102678.4;;;;-78
2022/07/10 11:39:32;;;;;;;;;;;;;;;28.57;37.48438;102680.1;;;;-77
2022/07/10 11:44:32;;;;;;;;;;;;;;;28.66;37.17676;102676.1;;;;-77
2022/07/10 11:49:32;;;;;;;;;;;;;;;28.68;37.24805;102675.5;;;;-78
2022/07/10 11:54:32;;;;;;;;;;;;;;;28.67;36.80273;102677.7;;;;-72
2022/07/10 11:59:32;;;;;;;;;;;;;;;28.63;37.08008;102686.2;;;;-73
2022/07/10 12:01:14;;;;;;;2.4;0.8;;;;;;;;;;;;;-73
2022/07/10 12:04:33;;;;;;;;;;;;;;;28.59;37.04199;102678.1;;;;-73
2022/07/10 12:09:32;;;;;;;;;;;;;;;28.52;37.02441;102676.7;;;;-72
2022/07/10 12:14:33;;;;;;;;;;;;;;;28.52;36.9541;102669.4;;;;-72
2022/07/10 12:19:33;;;;;;;;;;;;;;;28.53;37.08398;102669.7;;;;-77
2022/07/10 12:24:32;;;;;;;;;;;;;;;28.59;37.05371;102668.8;;;;-76
2022/07/10 12:29:32;;;;;;;;;;;;;;;28.69;37.31934;102672.5;;;;-78
2022/07/10 12:31:23;;;;;;;3;0.8;;;;;;;;;;;;;-78
2022/07/10 12:34:42;;;;;;;;;;;;;;;28.74;37.28809;102672.1;;;;-78
2022/07/10 12:39:34;;;;;;;;;;;;;;;28.73;37.36816;102664.3;;;;-77
2022/07/10 12:44:39;;;;;;;;;;;;;;;28.79;37.25684;102662.5;;;;-78
2022/07/10 12:49:32;;;;;;;;;;;;;;;28.9;37.24316;102659.2;;;;-76
2022/07/10 12:54:39;;;;;;;;;;;;;;;28.97;37.49316;102661.2;;;;-76
2022/07/10 12:59:32;;;;;;;;;;;;;;;29.06;37.95703;102669.7;;;;-78
2022/07/10 13:01:23;;;;;;;2.4;0.8;;;;;;;;;;;;;-79
2022/07/10 13:04:31;;;;;;;;;;;;;;;29.13;37.0498;102665.9;;;;-78
2022/07/10 13:09:32;;;;;;;;;;;;;;;29.16;37.47461;102660.4;;;;-77
2022/07/10 13:14:32;;;;;;;;;;;;;;;29.2;37.60645;102657.4;;;;-77
2022/07/10 13:19:31;;;;;;;;;;;;;;;29.21;36.7998;102665;;;;-79
2022/07/10 13:24:32;;;;;;;;;;;;;;;29.17;36.89063;102664.8;;;;-77
2022/07/10 13:29:32;;;;;;;;;;;;;;;29.17;37.33496;102663.9;;;;-77
2022/07/10 13:31:27;;;;;;;3.4;1.1;;;;;;;;;;;;;-78
2022/07/10 13:34:32;;;;;;;;;;;;;;;29.16;37.4043;102661.7;;;;-77
2022/07/10 13:39:32;;;;;;;;;;;;;;;29.13;37.19043;102660;;;;-78
2022/07/10 13:44:31;;;;;;;;;;;;;;;29.05;37.39453;102655.6;;;;-78
2022/07/10 13:49:32;;;;;;;;;;;;;;;28.93;37.57227;102650.2;;;;-78
2022/07/10 13:54:32;;;;;;;;;;;;;;;28.84;37.69336;102650.4;;;;-76
2022/07/10 13:59:31;;;;;;;;;;;;;;;28.77;38.00195;102641.5;;;;-78
2022/07/10 14:01:31;;;;;;;2.7;1;;;;;;;;;;;;;-76
2022/07/10 14:04:32;;;;;;;;;;;;;;;28.73;37.9873;102645.2;;;;-78
2022/07/10 14:09:32;;;;;;;;;;;;;;;28.73;38.12793;102644.6;;;;-78
2022/07/10 14:14:33;;;;;;;;;;;;;;;28.75;38.23438;102641;;;;-78
2022/07/10 14:19:32;;;;;;;;;;;;;;;28.74;38.32715;102638.2;;;;-78
2022/07/10 14:24:32;;;;;;;;;;;;;;;28.72;38.3252;102632;;;;-77
2022/07/10 14:29:32;;;;;;;;;;;;;;;28.7;38.05469;102628.9;;;;-77
2022/07/10 14:31:36;;;;;;;3.7;1.2;;;;;;;;;;;;;-78
2022/07/10 14:34:31;;;;;;;;;;;;;;;28.65;38.10938;102630.8;;;;-78
2022/07/10 14:39:32;;;;;;;;;;;;;;;28.6;38.15137;102637.4;;;;-75
2022/07/10 14:44:32;;;;;;;;;;;;;;;28.5;38.37695;102635.1;;;;-76
2022/07/10 14:49:32;;;;;;;;;;;;;;;28.36;38.50488;102634.4;;;;-78
2022/07/10 14:54:32;;;;;;;;;;;;;;;28.23;38.56348;102631.3;;;;-76
2022/07/10 14:59:32;;;;;;;;;;;;;;;28.1;38.94922;102625.5;;;;-78
2022/07/10 15:01:41;;;;;;;4.8;1.1;;;;;;;;;;;;;-78
2022/07/10 15:04:34;;;;;;;;;;;;;;;28.01;39.01074;102629.3;;;;-77
2022/07/10 15:09:31;;;;;;;;;;;;;;;27.91;39.2002;102624.4;;;;-77
2022/07/10 15:14:31;;;;;;;;;;;;;;;27.8;39.34277;102618.1;;;;-76
2022/07/10 15:19:32;;;;;;;;;;;;;;;27.68;39.59961;102616.4;;;;-77
2022/07/10 15:24:31;;;;;;;;;;;;;;;27.55;39.75195;102620.5;;;;-78
2022/07/10 15:29:32;;;;;;;;;;;;;;;27.37;40.00293;102611.2;;;;-78
2022/07/10 15:31:44;;;;;;;4.2;1.7;;;;;;;;;;;;;-77
2022/07/10 15:34:31;;;;;;;;;;;;;;;27.19;40.41699;102606.4;;;;-78
2022/07/10 15:39:41;;;;;;;;;;;;;;;27.04;40.78809;102603.4;;;;-79
2022/07/10 15:44:31;;;;;;;;;;;;;;;26.94;41.0459;102593.5;;;;-78
2022/07/10 15:49:32;;;;;;;;;;;;;;;26.91;41.29688;102583;;;;-72
2022/07/10 15:54:32;;;;;;;;;;;;;;;26.88;41.31934;102585.3;;;;-72
2022/07/10 15:59:32;;;;;;;;;;;;;;;26.84;41.41992;102583.6;;;;-73
2022/07/10 16:01:48;;;;;;;5.9;2.1;;;;;;;;;;;;;-72
2022/07/10 16:04:32;;;;;;;;;;;;;;;26.75;41.5625;102584.6;;;;-72
2022/07/10 16:09:32;;;;;;;;;;;;;;;26.64;41.78418;102582.8;;;;-77
2022/07/10 16:14:32;;;;;;;;;;;;;;;26.55;41.93848;102572;;;;-77
2022/07/10 16:19:32;;;;;;;;;;;;;;;26.46;42.10449;102561.9;;;;-78
2022/07/10 16:24:32;;;;;;;;;;;;;;;26.41;42.29688;102559.2;;;;-78
2022/07/10 16:29:32;;;;;;;;;;;;;;;26.44;42.4502;102550.5;;;;-79
2022/07/10 16:31:52;;;;;;;7.5;4.4;;;;;;;;;;;;;-79
2022/07/10 16:34:31;;;;;;;;;;;;;;;26.53;42.58594;102549.3;;;;-78
2022/07/10 16:39:31;;;;;;;;;;;;;;;26.58;42.54492;102548.8;;;;-75
2022/07/10 16:44:32;;;;;;;;;;;;;;;26.67;42.68066;102550.8;;;;-75
2022/07/10 16:49:32;;;;;;;;;;;;;;;26.71;42.46387;102544;;;;-75
2022/07/10 16:54:32;;;;;;;;;;;;;;;26.58;42.54492;102550.9;;;;-76
2022/07/10 16:59:31;;;;;;;;;;;;;;;26.38;42.80469;102552.7;;;;-75
2022/07/10 17:01:56;;;;;;;5.1;2.4;;;;;;;;;;;;;-75
2022/07/10 17:04:40;;;;;;;;;;;;;;;26.15;43.11914;102550;;;;-75
2022/07/10 17:09:32;;;;;;;;;;;;;;;25.98;43.40332;102554.6;;;;-76
2022/07/10 17:14:32;;;;;;;;;;;;;;;25.81;43.78027;102549.7;;;;-75
2022/07/10 17:19:32;;;;;;;;;;;;;;;25.7;43.93164;102549.6;;;;-75
2022/07/10 17:24:32;;;;;;;;;;;;;;;25.52;44.20313;102546.8;;;;-78
2022/07/10 17:29:32;;;;;;;;;;;;;;;25.36;44.4541;102544.3;;;;-72
2022/07/10 17:32:00;;;;;;;4.8;1.9;;;;;;;;;;;;;-79
2022/07/10 17:34:32;;;;;;;;;;;;;;;25.17;44.73633;102541.3;;;;-78
2022/07/10 17:39:32;;;;;;;;;;;;;;;24.94;44.89746;102535.5;;;;-79
2022/07/10 17:44:31;;;;;;;;;;;;;;;24.73;45.21094;102536.5;;;;-78
2022/07/10 17:49:33;;;;;;;;;;;;;;;24.53;45.51563;102537.7;;;;-77
2022/07/10 17:54:32;;;;;;;;;;;;;;;24.34;45.54199;102534.6;;;;-78
2022/07/10 17:59:33;;;;;;;;;;;;;;;24.14;45.77539;102532.6;;;;-78
2022/07/10 18:02:04;;;;;;;4.4;1.6;;;;;;;;;;;;;-79
2022/07/10 18:04:31;;;;;;;;;;;;;;;23.93;45.88086;102533.8;;;;-77
2022/07/10 18:09:32;;;;;;;;;;;;;;;23.73;46.25195;102527.8;;;;-77
2022/07/10 18:14:32;;;;;;;;;;;;;;;23.55;46.06055;102516;;;;-77
2022/07/10 18:19:31;;;;;;;;;;;;;;;23.41;46.26563;102518.2;;;;-76
2022/07/10 18:24:32;;;;;;;;;;;;;;;23.28;46.57324;102515.3;;;;-78
2022/07/10 18:29:32;;;;;;;;;;;;;;;23.2;46.58789;102519.2;;;;-78
2022/07/10 18:32:07;;;;;;;3.9;1.5;;;;;;;;;;;;;-78
2022/07/10 18:34:31;;;;;;;;;;;;;;;23.12;46.67188;102519.9;;;;-78
2022/07/10 19:24:42;;;;;;;;;;;;;;;22.02;48.08301;102532.3;;;;-80
2022/07/10 19:40:15;;;;;;;;;;;;;;;21.82;48.42773;102526.2;;;;-82
2022/07/10 19:43:55;;;;;;;;;;;;;;;21.44;48.75391;102536.3;;;;-81
2022/07/10 19:49:17;;;;;;;;;;;;;;;21.49;48.79297;102533.4;;;;-81
2022/07/10 19:53:53;;;;;;;;;;;;;;;21.04;49.46484;102531.9;;;;-82
2022/07/10 20:14:14;;;;;;;;;;;;;;;20.47;50.85059;102544.8;;;;-82
2022/07/10 20:51:10;;;;;;;;;;;;;;;19.47;52.52441;102553.8;;;;-79
2022/07/10 20:55:10;;;;;;;;;;;;;;;19.27;52.96875;102557.4;;;;-80
2022/07/10 21:17:15;;;;;;;;;;;;;;;18.94;53.51953;102558.5;;;;-81
2022/07/10 21:20:12;;;;;;;;;;;;;;;18.6;54.07031;102563.1;;;;-80
2022/07/10 21:24:58;;;;;;;;;;;;;;;;;;;;;
2022/07/10 21:32:32;;;;;;;4.1;1.3;;;;;;;;;;;;;-80
2022/07/10 21:34:54;;;;;;;;;;;;;;;18.32;54.45703;102575.6;;;;-81
2022/07/10 21:39:30;;;;;;;;;;;;;;;18.68;54.10254;102579.6;;;;-82
2022/07/10 21:51:19;;;;;;;;;;;;;;;18.58;54.2041;102576;;;;-82
2022/07/10 21:55:14;;;;;;;;;;;;;;;18.21;54.48828;102570.5;;;;-81
2022/07/10 22:00:12;;;;;;;;;;;;;;;18.18;54.54102;102569.2;;;;-81
2022/07/10 22:02:42;;;;;;;;;;;;;;;18.46;54.31445;102571.2;;;;-81
2022/07/10 22:06:03;;;;;;;;;;;;;;;18.18;54.7002;102566.1;;;;-81
2022/07/10 22:11:10;;;;;;;;;;;;;;;18.17;54.74414;102561.7;;;;-80
2022/07/10 22:16:19;;;;;;;;;;;;;;;18.14;54.76367;102560.5;;;;-80
2022/07/10 22:21:19;;;;;;;;;;;;;;;18.17;54.66504;102566.4;;;;-81
2022/07/10 22:26:13;;;;;;;;;;;;;;;18.17;54.6416;102564.3;;;;-81
2022/07/10 22:32:40;;;;;;;2.3;1.1;;;;;;;;;;;;;-81
2022/07/10 22:36:12;;;;;;;;;;;;;;;18.16;54.73145;102558.2;;;;-80
2022/07/10 22:40:53;;;;;;;;;;;;;;;18.38;54.56543;102550.7;;;;-82
2022/07/10 22:44:37;;;;;;;;;;;;;;;18.49;54.58984;102553.3;;;;-79
2022/07/10 22:47:48;;;;;;;;;;;;;;;18.17;54.76563;102551.9;;;;-80
2022/07/10 22:52:56;;;;;;;;;;;;;;;18.15;54.86621;102547.3;;;;-82
2022/07/10 23:02:37;;;;;;;;;;;;;;;18.14;54.9668;102541.2;;;;-78
2022/07/10 23:03:09;;;;;;;2.6;0.9;;;;;;;;;;;;;-78
2022/07/10 23:10:39;;;;;;;;;;;;;;;18.49;54.74902;102545.2;;;;-78
2022/07/10 23:15:47;;;;;;;;;;;;;;;18.38;54.82715;102539;;;;-77
2022/07/10 23:18:20;;;;;;;;;;;;;;;18.13;54.95508;102535.4;;;;-78
2022/07/10 23:23:21;;;;;;;;;;;;;;;18.13;54.97754;102534.2;;;;-77
2022/07/10 23:28:21;;;;;;;;;;;;;;;18.13;54.9082;102527.8;;;;-80
2022/07/10 23:32:35;;;;;;;1.8;0.9;;;;;;;;;;;;;-79
2022/07/10 23:33:19;;;;;;;;;;;;;;;18.12;55.22461;102532.3;;;;-79
2022/07/10 23:38:22;;;;;;;;;;;;;;;18.12;55.13574;102531.9;;;;-79
2022/07/10 23:43:19;;;;;;;;;;;;;;;18.1;55.17871;102524.3;;;;-78
2022/07/10 23:50:06;;;;;;;;;;;;;;;18.11;55.16699;102529.5;;;;-79
2022/07/10 23:53:20;;;;;;;;;;;;;;;18.1;55.23438;102528;;;;-81
2022/07/10 23:58:19;;;;;;;;;;;;;;;18.1;55.33594;102527.4;;;;-79
